Time;durP1;ratioP1;P1;durP2;ratioP2;P2;SDS_P1;SDS_P2;PMS_P1;PMS_P2;Temp;Humidity;BMP_temperature;BMP_pressure;BME280_temperature;BME280_humidity;BME280_pressure;Samples;Min_cycle;Max_cycle;Signal;HPM_P1;HPM_P2
2022/01/27 00:02:04;;;;;;;34.87;21.27;;;0.00;99.90;;;0.72;89.28;99217.81;5201805;28;20217;-61
2022/01/27 00:04:41;;;;;;;30.87;19.30;;;0.00;99.90;;;0.65;89.35;99213.66;5191225;28;20226;-60
2022/01/27 00:07:16;;;;;;;34.77;20.93;;;-0.10;99.90;;;0.82;88.67;99210.59;5199755;28;20216;-59
2022/01/27 00:10:04;;;;;;;32.70;20.17;;;0.00;99.90;;;0.83;89.47;99209.84;5203727;28;20597;-61
2022/01/27 00:12:37;;;;;;;35.87;21.50;;;0.00;99.90;;;0.86;89.21;99205.19;5196950;28;20224;-62
2022/01/27 00:15:12;;;;;;;37.57;20.80;;;0.00;99.90;;;0.85;89.44;99199.25;5203881;28;20223;-61
2022/01/27 00:17:46;;;;;;;35.13;20.67;;;0.00;99.90;;;0.93;88.74;99192.59;5198251;28;20759;-64
2022/01/27 00:20:19;;;;;;;39.40;21.83;;;0.00;99.90;;;0.93;88.76;99194.22;5197973;28;20217;-60
2022/01/27 00:22:54;;;;;;;37.70;22.30;;;0.00;99.90;;;0.86;89.50;99201.06;5202107;28;20312;-60
2022/01/27 00:25:27;;;;;;;35.77;21.17;;;0.00;99.90;;;0.87;89.26;99197.81;5200989;28;20214;-62
2022/01/27 00:28:01;;;;;;;36.73;22.00;;;0.00;99.90;;;0.83;89.14;99198.19;5202782;28;20713;-61
2022/01/27 00:30:34;;;;;;;39.90;21.73;;;-0.10;99.90;;;0.80;89.05;99195.31;5203262;28;20217;-62
2022/01/27 00:33:08;;;;;;;36.33;21.40;;;0.00;99.90;;;0.88;89.53;99189.53;5204497;28;20311;-61
2022/01/27 00:35:41;;;;;;;35.47;21.17;;;0.00;99.90;;;0.92;89.24;99188.28;5202432;28;20642;-62
2022/01/27 00:38:15;;;;;;;36.57;21.90;;;0.00;99.90;;;0.97;88.68;99191.31;5194700;28;20230;-62
2022/01/27 00:40:49;;;;;;;40.97;22.13;;;0.00;99.90;;;0.86;89.27;99196.03;5203993;28;20224;-61
2022/01/27 00:43:22;;;;;;;33.90;21.43;;;0.00;99.90;;;0.84;89.35;99187.41;5202125;28;20658;-61
2022/01/27 00:45:55;;;;;;;36.90;21.73;;;0.00;99.90;;;0.77;89.70;99189.91;5203624;28;20646;-61
2022/01/27 00:48:28;;;;;;;37.77;21.40;;;0.00;99.90;;;0.82;90.04;99183.78;5204929;28;20253;-60
2022/01/27 00:51:04;;;;;;;37.73;21.80;;;0.00;99.90;;;0.89;89.38;99187.94;5203770;28;20256;-60
2022/01/27 00:53:45;;;;;;;41.90;23.90;;;0.00;99.90;;;0.83;90.09;99198.19;5202478;28;20218;-60
2022/01/27 00:56:24;;;;;;;42.13;23.83;;;0.00;99.90;;;0.97;89.47;99197.25;5198839;28;20748;-62
2022/01/27 00:59:17;;;;;;;37.00;22.27;;;0.00;99.90;;;0.86;89.28;99212.75;5200266;28;20238;-61
2022/01/27 01:01:57;;;;;;;34.27;21.77;;;0.00;99.90;;;0.85;89.46;99211.81;5202733;28;20266;-63
2022/01/27 01:04:34;;;;;;;40.73;22.03;;;0.00;99.90;;;0.79;88.62;99213.63;5202691;28;20218;-61
2022/01/27 01:07:09;;;;;;;41.97;22.43;;;-0.10;99.90;;;0.70;89.15;99210.06;5202823;28;20226;-59
2022/01/27 01:15:50;;;;;;;37.10;21.93;;;-0.20;99.90;;;0.65;89.75;99213.66;5270999;27;21190;-62
2022/01/27 01:18:38;;;;;;;38.27;23.10;;;-0.20;99.90;;;0.59;89.78;99197.84;5257384;28;20219;-60
2022/01/27 01:21:30;;;;;;;37.93;22.00;;;-0.20;99.90;;;0.53;90.25;99202.16;5252672;28;20218;-58
2022/01/27 01:30:21;;;;;;;38.37;21.83;;;-0.30;99.90;;;0.56;90.67;99200.91;5234806;28;20240;-60
2022/01/27 01:32:57;;;;;;;41.53;23.37;;;-0.20;99.90;;;0.60;90.37;99194.59;5233852;28;20221;-63
2022/01/27 01:35:47;;;;;;;39.97;22.53;;;-0.20;99.90;;;0.41;90.36;99194.97;5236060;28;20223;-59
2022/01/27 01:38:25;;;;;;;40.43;23.33;;;-0.30;99.90;;;0.57;90.42;99199.28;5233660;28;20217;-60
2022/01/27 01:40:59;;;;;;;43.20;23.30;;;-0.20;99.90;;;0.54;90.10;99197.28;5244480;28;20302;-63
2022/01/27 01:43:32;;;;;;;41.20;23.63;;;-0.20;99.90;;;0.67;90.57;99187.94;5235319;28;20669;-58
2022/01/27 01:46:05;;;;;;;46.57;24.83;;;-0.10;99.90;;;0.74;90.17;99189.56;5230458;28;20260;-62
2022/01/27 01:48:39;;;;;;;42.93;24.77;;;0.00;99.90;;;0.71;89.80;99184.16;5237507;28;20309;-60
2022/01/27 01:51:13;;;;;;;45.37;24.90;;;0.00;99.90;;;0.76;89.99;99179.69;5238741;28;20212;-59
2022/01/27 01:53:46;;;;;;;43.23;23.43;;;0.00;99.90;;;0.79;89.23;99177.50;5235056;28;20314;-62
2022/01/27 01:56:19;;;;;;;42.93;23.70;;;-0.10;99.90;;;0.84;88.96;99162.22;5233335;28;20208;-62
2022/01/27 01:58:52;;;;;;;41.60;23.53;;;-0.10;99.90;;;0.88;88.61;99153.41;5234211;28;20217;-62
2022/01/27 02:01:25;;;;;;;43.67;24.87;;;-0.10;99.90;;;0.74;89.42;99149.28;5239553;28;20215;-62
2022/01/27 02:04:05;;;;;;;44.63;24.90;;;-0.10;99.90;;;0.88;88.66;99143.34;5230942;28;20218;-64
2022/01/27 02:06:44;;;;;;;42.10;24.53;;;-0.10;99.90;;;1.07;87.79;99143.84;5232978;28;20307;-63
2022/01/27 02:09:27;;;;;;;44.90;24.77;;;-0.10;99.90;;;0.91;87.87;99148.72;5228033;28;20248;-62
2022/01/27 02:18:00;;;;;;;42.70;24.03;;;-0.10;99.90;;;0.92;88.72;99139.53;5234788;28;20221;-63
2022/01/27 02:20:37;;;;;;;45.30;25.40;;;0.00;99.90;;;0.96;87.79;99145.13;5225421;28;20644;-62
2022/01/27 02:23:12;;;;;;;44.30;24.57;;;-0.10;99.90;;;0.91;88.03;99151.25;5236207;28;20227;-63
2022/01/27 02:25:45;;;;;;;43.57;25.57;;;0.00;99.90;;;0.99;87.88;99147.09;5228593;28;20570;-61
2022/01/27 02:28:18;;;;;;;44.27;25.10;;;0.00;99.90;;;0.97;87.93;99148.53;5214999;28;20220;-60
2022/01/27 02:30:51;;;;;;;45.00;25.93;;;0.00;99.90;;;0.96;87.79;99151.78;5221846;28;20690;-60
2022/01/27 02:33:31;;;;;;;50.07;25.83;;;0.00;99.90;;;1.02;87.02;99153.38;5217668;28;20226;-62
2022/01/27 02:36:06;;;;;;;43.60;25.60;;;0.00;99.90;;;0.86;87.44;99158.28;5217746;28;20699;-61
2022/01/27 02:38:39;;;;;;;40.77;24.90;;;0.00;99.90;;;0.73;88.06;99152.53;5215717;28;20227;-60
2022/01/27 02:41:13;;;;;;;46.83;25.43;;;0.00;99.90;;;0.76;88.73;99160.44;5207399;28;20234;-60
2022/01/27 02:43:46;;;;;;;43.30;24.47;;;0.00;99.90;;;1.00;87.56;99158.94;5221491;28;20230;-60
2022/01/27 02:46:26;;;;;;;47.50;25.80;;;0.00;99.90;;;0.84;87.19;99149.66;5221363;28;20215;-61
2022/01/27 02:48:59;;;;;;;43.50;23.40;;;0.00;99.90;;;0.86;87.50;99153.25;5219953;28;20689;-62
2022/01/27 02:51:35;;;;;;;50.30;25.83;;;-0.10;99.90;;;0.75;87.51;99141.03;5224027;28;20231;-61
2022/01/27 02:54:08;;;;;;;43.87;24.60;;;0.00;99.90;;;0.76;87.56;99146.97;5216943;28;20226;-60
2022/01/27 02:56:43;;;;;;;44.77;25.57;;;-0.10;99.90;;;0.70;88.55;99147.16;5214947;28;20241;-62
2022/01/27 02:59:19;;;;;;;43.27;24.57;;;0.00;99.90;;;0.71;88.62;99138.00;5228742;28;20760;-60
2022/01/27 03:01:53;;;;;;;44.37;25.57;;;0.00;99.90;;;0.71;88.37;99145.53;5221140;28;20235;-61
2022/01/27 03:04:30;;;;;;;48.17;24.77;;;0.00;99.90;;;0.69;88.52;99135.31;5210793;28;20230;-63
2022/01/27 03:07:06;;;;;;;43.37;24.10;;;-0.10;99.90;;;0.61;88.08;99141.97;5212852;28;20225;-62
2022/01/27 03:09:40;;;;;;;45.30;25.03;;;-0.10;99.90;;;0.61;88.52;99146.09;5229108;28;20643;-60
2022/01/27 03:12:13;;;;;;;48.50;26.50;;;-0.10;99.90;;;0.65;88.96;99154.16;5211549;28;20602;-61
2022/01/27 03:14:46;;;;;;;45.07;25.50;;;-0.10;99.90;;;0.67;88.57;99156.88;5212975;28;20262;-59
2022/01/27 03:17:19;;;;;;;46.10;24.40;;;-0.10;99.90;;;0.75;88.41;99150.22;5227557;28;20347;-63
2022/01/27 03:19:52;;;;;;;41.13;26.10;;;0.00;99.90;;;0.73;88.79;99151.66;5218034;28;20223;-60
2022/01/27 03:22:27;;;;;;;44.90;25.47;;;0.00;99.90;;;0.75;88.89;99141.03;5212592;28;20724;-63
2022/01/27 03:25:00;;;;;;;46.33;25.80;;;0.00;99.90;;;0.98;87.59;99142.78;5218786;28;20224;-61
2022/01/27 03:27:34;;;;;;;46.07;25.40;;;0.00;99.90;;;1.00;86.66;99138.81;5222183;28;20688;-60
2022/01/27 03:30:10;;;;;;;46.27;27.17;;;0.00;99.90;;;1.01;87.07;99145.66;5221188;28;20218;-62
2022/01/27 03:32:43;;;;;;;48.17;26.10;;;0.00;99.90;;;0.93;87.73;99147.28;5214559;28;20308;-64
2022/01/27 03:35:16;;;;;;;44.23;25.20;;;0.10;99.90;;;0.94;87.52;99143.16;5219493;28;20227;-59
2022/01/27 03:37:50;;;;;;;45.67;25.43;;;0.10;99.90;;;1.08;87.13;99143.09;5216931;28;20611;-62
2022/01/27 03:40:24;;;;;;;46.60;25.83;;;0.10;99.90;;;0.97;87.50;99148.53;5221693;28;20222;-62
2022/01/27 03:43:05;;;;;;;47.23;25.53;;;0.10;99.90;;;1.03;86.53;99145.13;5215958;28;20225;-62
2022/01/27 03:45:38;;;;;;;44.97;26.20;;;0.10;99.90;;;1.02;87.44;99133.22;5222481;28;20218;-61
2022/01/27 03:48:11;;;;;;;41.03;23.20;;;0.10;99.90;;;1.11;86.31;99128.34;5207514;28;20743;-62
2022/01/27 03:50:45;;;;;;;43.63;25.57;;;0.00;99.90;;;1.09;86.28;99127.28;5219637;28;20224;-60
2022/01/27 03:53:19;;;;;;;47.93;26.13;;;0.10;99.90;;;1.11;86.43;99123.31;5222594;28;20225;-62
2022/01/27 03:55:52;;;;;;;43.67;25.03;;;0.10;99.90;;;1.18;85.51;99127.44;5210848;28;20221;-63
2022/01/27 03:58:26;;;;;;;38.70;23.73;;;0.10;99.90;;;1.07;85.28;99116.16;5214382;28;20220;-60
2022/01/27 04:00:59;;;;;;;41.70;25.63;;;0.10;99.90;;;1.09;85.39;99119.75;5216675;28;20214;-61
2022/01/27 04:03:37;;;;;;;43.13;24.70;;;0.00;99.90;;;1.15;84.02;99110.38;5213500;28;20510;-60
2022/01/27 04:06:10;;;;;;;44.53;25.60;;;0.10;99.90;;;1.06;84.97;99114.34;5223571;28;20224;-60
2022/01/27 04:08:44;;;;;;;38.80;24.27;;;0.10;99.90;;;1.05;85.17;99117.59;5212710;28;20227;-62
2022/01/27 04:11:17;;;;;;;38.37;24.33;;;0.00;99.90;;;1.07;84.61;99117.03;5222928;28;20226;-60
2022/01/27 04:13:50;;;;;;;38.27;23.20;;;0.00;99.90;;;1.14;84.57;99111.06;5229102;28;20231;-62
2022/01/27 04:16:24;;;;;;;42.27;24.83;;;0.10;99.90;;;1.15;84.17;99105.34;5213941;28;20652;-62
2022/01/27 04:18:57;;;;;;;44.67;24.73;;;0.00;99.90;;;1.15;84.43;99095.25;5218057;28;20222;-60
2022/01/27 04:21:30;;;;;;;44.97;25.97;;;0.00;99.90;;;1.04;84.57;99090.63;5224946;28;20216;-61
2022/01/27 04:24:05;;;;;;;44.53;24.83;;;0.00;99.90;;;0.97;85.48;99083.09;5222472;28;20230;-62
2022/01/27 04:26:43;;;;;;;43.70;25.10;;;-0.10;99.90;;;1.03;85.63;99083.78;5217176;28;20278;-63
2022/01/27 04:29:19;;;;;;;46.43;25.80;;;-0.10;99.90;;;0.99;85.46;99086.69;5217830;28;20222;-61
2022/01/27 04:31:53;;;;;;;43.47;25.33;;;-0.10;99.90;;;0.96;85.73;99081.31;5211375;28;20218;-59
2022/01/27 04:34:28;;;;;;;46.47;25.40;;;-0.10;99.90;;;0.85;85.88;99087.63;5214349;28;20310;-63
2022/01/27 04:37:01;;;;;;;45.10;26.03;;;-0.10;99.90;;;0.76;86.19;99087.47;5217098;28;20227;-62
2022/01/27 04:39:41;;;;;;;43.13;25.70;;;-0.10;99.90;;;0.75;86.66;99099.91;5212969;28;20225;-60
2022/01/27 04:42:23;;;;;;;43.07;25.00;;;-0.10;99.90;;;0.70;87.13;99091.81;5217493;28;20221;-61
2022/01/27 04:45:19;;;;;;;40.10;24.63;;;-0.10;99.90;;;0.79;87.08;99080.28;5216515;28;20221;-60
2022/01/27 04:48:01;;;;;;;44.47;24.70;;;0.00;99.90;;;0.97;86.21;99076.44;5220967;28;20307;-60
2022/01/27 04:50:35;;;;;;;43.30;25.03;;;-0.10;99.90;;;1.00;85.88;99070.84;5218221;28;20301;-61
2022/01/27 04:53:14;;;;;;;43.87;25.47;;;0.00;99.90;;;1.04;85.50;99066.34;5223797;28;20625;-62
2022/01/27 04:55:48;;;;;;;48.07;25.80;;;0.00;99.90;;;1.03;85.86;99067.09;5225095;28;20222;-62
2022/01/27 04:58:29;;;;;;;42.03;26.43;;;0.00;99.90;;;0.90;86.39;99066.41;5229692;28;20233;-59
2022/01/27 05:01:03;;;;;;;43.97;25.17;;;0.00;99.90;;;0.97;86.32;99065.47;5228381;28;20222;-58
2022/01/27 05:03:42;;;;;;;44.47;25.87;;;0.00;99.90;;;0.90;86.85;99067.28;5213956;28;20255;-62
2022/01/27 05:06:15;;;;;;;44.50;25.67;;;0.00;99.90;;;0.83;87.06;99069.84;5216627;28;20215;-62
2022/01/27 05:08:48;;;;;;;41.93;24.17;;;0.00;99.90;;;0.82;87.28;99069.66;5223072;28;20575;-62
2022/01/27 05:11:27;;;;;;;40.30;24.00;;;0.00;99.90;;;0.77;86.68;99079.19;5214658;28;20224;-62
2022/01/27 05:14:07;;;;;;;41.87;25.03;;;-0.10;99.90;;;0.73;86.44;99073.66;5224189;28;20607;-60
2022/01/27 05:16:40;;;;;;;42.30;24.33;;;-0.10;99.90;;;0.63;86.80;99071.69;5219647;28;20711;-62
2022/01/27 05:19:14;;;;;;;42.87;24.97;;;-0.10;99.90;;;0.61;87.70;99063.97;5215643;28;20221;-60
2022/01/27 05:21:47;;;;;;;41.40;24.50;;;-0.20;99.90;;;0.60;86.80;99066.31;5221326;28;20228;-62
2022/01/27 05:24:26;;;;;;;41.00;24.73;;;-0.20;99.90;;;0.52;87.18;99067.97;5209938;28;20261;-63
2022/01/27 05:27:00;;;;;;;39.13;24.70;;;-0.20;99.90;;;0.64;87.07;99061.81;5220298;28;20221;-60
2022/01/27 05:29:33;;;;;;;41.70;24.57;;;-0.20;99.90;;;0.71;87.07;99049.94;5213810;28;20226;-60
2022/01/27 05:32:08;;;;;;;41.97;24.53;;;-0.10;99.90;;;0.71;86.87;99053.34;5217573;28;20215;-62
2022/01/27 05:34:41;;;;;;;44.87;26.93;;;-0.10;99.90;;;0.68;87.17;99048.84;5219843;28;20227;-62
2022/01/27 05:37:14;;;;;;;48.73;24.90;;;-0.10;99.90;;;0.58;86.88;99057.72;5222255;28;20262;-63
2022/01/27 05:39:47;;;;;;;40.43;24.37;;;-0.10;99.90;;;0.57;87.87;99061.84;5213592;28;20271;-63
2022/01/27 05:42:22;;;;;;;44.00;24.90;;;-0.20;99.90;;;0.65;87.26;99052.66;5222436;28;20221;-62
2022/01/27 05:44:55;;;;;;;46.90;25.63;;;-0.10;99.90;;;0.72;87.06;99060.19;5219460;28;20221;-60
2022/01/27 05:47:28;;;;;;;45.87;25.33;;;-0.10;99.90;;;0.63;87.36;99059.13;5221564;28;20218;-62
2022/01/27 05:50:01;;;;;;;45.93;25.97;;;-0.10;99.90;;;0.80;87.46;99050.97;5212588;28;20226;-61
2022/01/27 05:52:34;;;;;;;43.90;25.97;;;0.00;99.90;;;0.95;87.14;99046.81;5211155;28;20224;-63
2022/01/27 05:55:09;;;;;;;44.40;25.87;;;0.00;99.90;;;0.94;86.90;99052.53;5219456;28;20222;-62
2022/01/27 05:57:43;;;;;;;44.63;26.10;;;0.00;99.90;;;0.95;86.07;99050.22;5218947;28;20248;-64
2022/01/27 06:00:18;;;;;;;41.53;25.13;;;0.00;99.90;;;0.83;86.57;99059.78;5215985;28;20226;-63
2022/01/27 06:02:52;;;;;;;42.53;25.00;;;0.00;99.90;;;0.83;87.46;99069.84;5227211;28;20226;-63
2022/01/27 06:05:26;;;;;;;44.37;26.17;;;0.00;99.90;;;0.78;87.03;99065.91;5224477;28;20738;-62
2022/01/27 06:07:59;;;;;;;43.37;24.97;;;0.00;99.90;;;0.79;87.12;99064.28;5228823;28;20687;-63
2022/01/27 06:10:32;;;;;;;43.60;24.57;;;0.00;99.90;;;0.80;86.29;99064.47;5222362;28;20226;-62
2022/01/27 06:13:06;;;;;;;44.00;25.37;;;0.00;99.90;;;0.81;86.78;99061.22;5226678;28;20219;-62
2022/01/27 06:15:39;;;;;;;38.77;25.20;;;0.00;99.90;;;0.80;86.61;99056.94;5226285;28;20609;-63
2022/01/27 06:18:13;;;;;;;39.40;23.50;;;0.00;99.90;;;0.66;86.81;99069.56;5226625;28;20351;-61
2022/01/27 06:20:46;;;;;;;40.67;24.83;;;-0.10;99.90;;;0.62;87.19;99067.41;5226451;28;20229;-63
2022/01/27 06:23:20;;;;;;;42.57;26.17;;;-0.10;99.90;;;0.64;86.64;99076.03;5226522;28;20228;-62
2022/01/27 06:25:53;;;;;;;42.13;23.67;;;-0.20;99.90;;;0.58;87.28;99081.25;5227798;28;20228;-63
2022/01/27 06:28:27;;;;;;;40.17;24.93;;;-0.20;99.90;;;0.58;87.57;99080.34;5215853;28;20219;-61
2022/01/27 06:31:00;;;;;;;40.50;25.33;;;-0.20;99.90;;;0.54;86.92;99078.19;5214422;28;20224;-62
2022/01/27 06:33:34;;;;;;;42.53;26.67;;;-0.30;99.90;;;0.48;87.44;99080.00;5225282;28;20233;-59
2022/01/27 06:36:07;;;;;;;39.67;23.83;;;-0.30;99.90;;;0.50;87.47;99083.59;5213860;28;20689;-64
2022/01/27 06:38:40;;;;;;;43.13;24.87;;;-0.30;99.90;;;0.51;87.70;99083.75;5226403;28;20221;-63
2022/01/27 06:41:13;;;;;;;39.77;25.13;;;-0.20;99.90;;;0.58;87.59;99080.34;5223419;28;20262;-63
2022/01/27 06:43:48;;;;;;;40.70;24.63;;;-0.20;99.90;;;0.58;87.71;99077.84;5222903;28;20230;-61
2022/01/27 06:46:21;;;;;;;41.60;24.33;;;-0.20;99.90;;;0.58;87.74;99075.31;5219821;28;20221;-62
2022/01/27 06:48:54;;;;;;;41.50;24.97;;;-0.20;99.90;;;0.60;87.63;99078.88;5214350;28;20665;-61
2022/01/27 06:51:28;;;;;;;40.97;25.50;;;-0.20;99.90;;;0.77;86.84;99084.22;5222795;28;20251;-60
2022/01/27 06:54:02;;;;;;;39.53;24.53;;;-0.20;99.90;;;0.85;86.61;99080.09;5224553;28;20305;-63
2022/01/27 06:56:35;;;;;;;39.63;24.83;;;-0.10;99.90;;;0.91;86.88;99078.25;5220633;28;20688;-62
2022/01/27 06:59:10;;;;;;;43.67;25.30;;;-0.10;99.90;;;1.08;85.35;99082.69;5223073;28;20875;-62
2022/01/27 07:01:43;;;;;;;41.50;24.77;;;-0.10;99.90;;;0.87;85.83;99087.09;5217149;28;20225;-64
2022/01/27 07:04:16;;;;;;;41.63;22.93;;;-0.10;99.90;;;0.81;86.43;99085.50;5223226;28;20301;-63
2022/01/27 07:06:52;;;;;;;43.00;23.50;;;-0.10;99.90;;;0.76;86.89;99082.44;5222321;28;20582;-61
2022/01/27 07:09:25;;;;;;;41.97;26.17;;;-0.10;99.90;;;0.82;86.51;99079.72;5221525;28;20227;-57
2022/01/27 07:11:58;;;;;;;43.20;23.80;;;-0.10;99.90;;;0.86;86.50;99071.81;5214671;28;20232;-63
2022/01/27 07:14:33;;;;;;;43.13;25.70;;;-0.10;99.90;;;0.85;86.87;99072.53;5223925;28;20716;-60
2022/01/27 07:17:06;;;;;;;40.57;24.17;;;-0.10;99.90;;;0.85;86.70;99078.44;5215023;28;20449;-61
2022/01/27 07:19:39;;;;;;;41.63;25.00;;;0.00;99.90;;;0.89;86.24;99085.66;5223598;28;20689;-62
2022/01/27 07:22:12;;;;;;;42.67;24.47;;;0.00;99.90;;;0.99;85.65;99081.66;5222144;28;20338;-63
2022/01/27 07:24:45;;;;;;;42.77;24.37;;;0.00;99.90;;;0.95;85.97;99074.50;5219395;28;20235;-63
2022/01/27 07:27:19;;;;;;;40.43;25.13;;;0.00;99.90;;;0.95;85.86;99087.97;5224747;28;20251;-62
2022/01/27 07:29:54;;;;;;;40.27;24.83;;;0.00;99.90;;;1.01;85.63;99087.78;5223834;28;20216;-63
2022/01/27 07:32:27;;;;;;;38.83;24.70;;;0.00;99.90;;;1.13;85.01;99082.47;5223444;28;20695;-62
2022/01/27 07:35:01;;;;;;;40.53;25.80;;;0.00;99.90;;;1.13;84.49;99089.16;5224263;28;20563;-61
2022/01/27 07:37:34;;;;;;;39.60;24.83;;;0.00;99.90;;;1.02;85.36;99094.59;5216473;28;20221;-63
2022/01/27 07:40:09;;;;;;;40.37;24.53;;;0.00;99.90;;;0.88;85.48;99091.38;5209068;28;20675;-63
2022/01/27 07:42:42;;;;;;;39.97;23.27;;;0.00;99.90;;;0.80;85.58;99094.69;5212076;28;20226;-62
2022/01/27 07:45:16;;;;;;;41.77;24.67;;;0.00;99.90;;;0.80;85.51;99103.81;5209083;28;20692;-62
2022/01/27 07:47:49;;;;;;;41.57;24.37;;;-0.10;99.90;;;0.69;85.60;99105.13;5225133;28;20212;-63
2022/01/27 07:50:26;;;;;;;40.17;24.97;;;-0.10;99.90;;;0.64;86.03;99108.72;5215563;28;20222;-63
2022/01/27 07:52:59;;;;;;;42.43;24.20;;;-0.10;99.90;;;0.67;85.85;99106.56;5222003;28;20580;-63
2022/01/27 07:55:32;;;;;;;40.77;24.53;;;-0.10;99.90;;;0.68;85.74;99109.22;5217863;28;20228;-63
2022/01/27 07:58:05;;;;;;;45.43;26.70;;;-0.10;99.90;;;0.61;86.21;99116.81;5218785;28;20236;-62
2022/01/27 08:00:40;;;;;;;46.17;25.90;;;-0.20;99.90;;;0.32;87.30;99115.94;5227994;28;20225;-62
2022/01/27 08:03:13;;;;;;;47.63;26.97;;;-0.30;99.90;;;0.41;87.17;99122.03;5223802;28;20270;-62
2022/01/27 08:05:47;;;;;;;45.93;24.60;;;-0.30;99.90;;;0.43;86.97;99119.72;5223744;28;20719;-61
2022/01/27 08:08:20;;;;;;;49.70;26.20;;;-0.30;99.90;;;0.28;87.12;99107.88;5225683;28;20214;-63
2022/01/27 08:10:53;;;;;;;51.50;26.47;;;-0.40;99.90;;;0.37;86.98;99108.94;5225814;28;20225;-62
2022/01/27 08:13:27;;;;;;;53.03;27.57;;;-0.40;99.90;;;0.39;87.03;99115.03;5210057;28;20227;-62
2022/01/27 08:16:02;;;;;;;47.57;26.37;;;-0.40;99.90;;;0.47;86.56;99111.81;5222402;28;20242;-64
2022/01/27 08:18:50;;;;;;;49.47;25.97;;;-0.30;99.90;;;0.44;86.94;99111.44;5218793;28;20217;-63
2022/01/27 08:21:23;;;;;;;50.47;26.50;;;-0.30;99.90;;;0.44;86.85;99099.75;5222686;28;20221;-63
2022/01/27 08:23:57;;;;;;;46.77;25.93;;;-0.30;99.90;;;0.54;86.60;99103.34;5221828;28;20229;-61
2022/01/27 08:26:37;;;;;;;45.47;25.77;;;-0.30;99.90;;;0.65;84.98;99110.50;5214655;28;20223;-61
2022/01/27 08:29:14;;;;;;;46.70;25.37;;;-0.10;99.90;;;0.55;85.84;99107.66;5223026;28;20514;-63
2022/01/27 08:31:58;;;;;;;41.03;24.27;;;-0.20;99.90;;;0.54;85.92;99101.72;5223035;28;20221;-63
2022/01/27 08:34:36;;;;;;;38.57;23.27;;;-0.10;99.90;;;0.59;84.44;99102.25;5219658;28;20319;-62
2022/01/27 08:37:11;;;;;;;37.70;23.50;;;-0.20;99.90;;;0.60;85.04;99094.91;5225065;28;20214;-61
2022/01/27 08:39:46;;;;;;;39.83;22.40;;;-0.20;99.90;;;0.73;83.82;99096.31;5213971;28;20236;-63
2022/01/27 08:42:19;;;;;;;38.13;23.07;;;-0.20;99.90;;;0.81;83.13;99104.00;5220467;28;20220;-62
2022/01/27 08:44:52;;;;;;;41.57;24.47;;;-0.30;99.90;;;0.84;82.71;99096.81;5220013;28;20230;-62
2022/01/27 08:47:27;;;;;;;42.33;24.20;;;-0.10;99.90;;;0.81;83.34;99086.38;5221524;28;20695;-61
2022/01/27 08:50:00;;;;;;;36.27;22.10;;;-0.10;99.90;;;0.73;83.25;99102.22;5224928;28;20221;-63
2022/01/27 08:52:34;;;;;;;42.30;23.60;;;-0.20;99.90;;;0.69;83.34;99102.59;5222869;28;20221;-61
2022/01/27 08:55:09;;;;;;;41.50;24.53;;;-0.20;99.90;;;0.87;83.59;99106.31;5224652;28;20214;-63
2022/01/27 08:57:42;;;;;;;39.03;23.33;;;-0.10;99.90;;;0.86;82.80;99094.47;5224894;28;20228;-61
2022/01/27 09:00:16;;;;;;;39.70;23.37;;;-0.10;99.90;;;0.96;82.52;99096.41;5222264;28;20224;-63
2022/01/27 09:02:58;;;;;;;38.30;22.53;;;-0.10;99.90;;;0.98;82.19;99090.81;5225156;28;20308;-60
2022/01/27 09:05:31;;;;;;;37.10;21.97;;;-0.10;99.90;;;0.98;81.63;99100.91;5224612;28;20231;-63
2022/01/27 09:08:05;;;;;;;34.93;21.30;;;0.00;99.90;;;1.05;80.77;99099.97;5224594;28;20217;-63
2022/01/27 09:10:40;;;;;;;37.53;21.97;;;0.00;99.90;;;0.99;81.20;99095.13;5223969;28;20230;-60
2022/01/27 09:13:14;;;;;;;35.80;21.10;;;0.00;99.90;;;1.02;80.67;99098.00;5216254;28;20270;-62
2022/01/27 09:15:50;;;;;;;33.70;20.83;;;0.00;99.90;;;1.01;80.22;99097.84;5224357;28;20229;-62
2022/01/27 09:18:24;;;;;;;35.40;20.97;;;0.00;99.90;;;0.96;80.60;99091.38;5222128;28;20237;-63
2022/01/27 09:20:59;;;;;;;35.70;21.07;;;0.00;99.90;;;0.98;80.72;99105.03;5216127;28;20225;-61
2022/01/27 09:23:33;;;;;;;37.07;21.93;;;0.00;99.90;;;0.90;79.99;99114.22;5220194;28;20603;-61
2022/01/27 09:26:09;;;;;;;38.07;21.77;;;0.00;99.90;;;0.92;80.79;99129.47;5224194;28;20239;-63
2022/01/27 09:28:43;;;;;;;40.63;22.60;;;-0.10;99.90;;;1.00;80.38;99122.13;5224367;28;20713;-63
2022/01/27 09:31:16;;;;;;;40.20;22.67;;;-0.10;99.90;;;0.96;80.96;99119.06;5224247;28;20240;-62
2022/01/27 09:33:50;;;;;;;42.77;23.47;;;-0.10;99.90;;;1.05;80.55;99122.63;5223149;28;20223;-63
2022/01/27 09:36:23;;;;;;;38.67;22.23;;;-0.10;99.90;;;0.90;80.93;99137.75;5223535;28;20224;-63
2022/01/27 09:38:56;;;;;;;43.50;23.50;;;-0.10;99.90;;;0.94;81.56;99140.63;5228048;28;20220;-62
2022/01/27 09:41:32;;;;;;;42.57;21.10;;;0.00;99.90;;;1.06;79.85;99130.38;5228997;28;20220;-62
2022/01/27 09:44:09;;;;;;;43.10;22.10;;;0.00;99.90;;;0.96;79.94;99140.09;5228040;28;20225;-61
2022/01/27 09:46:45;;;;;;;36.47;20.87;;;0.00;99.90;;;1.07;80.05;99131.25;5228439;28;20217;-63
2022/01/27 09:49:31;;;;;;;38.00;21.03;;;0.00;99.90;;;1.07;80.61;99128.72;5216735;28;20635;-63
2022/01/27 09:52:05;;;;;;;39.50;22.07;;;0.00;99.90;;;1.05;80.34;99122.63;5223628;28;20231;-62
2022/01/27 09:54:38;;;;;;;36.90;22.17;;;0.00;99.90;;;1.11;80.30;99114.13;5225151;28;20221;-62
2022/01/27 09:57:14;;;;;;;42.60;22.73;;;0.10;99.90;;;1.16;80.54;99104.59;5224972;28;20220;-62
2022/01/27 09:59:49;;;;;;;39.07;21.50;;;0.20;99.90;;;1.22;80.43;99112.84;5213324;28;20236;-62
2022/01/27 10:02:25;;;;;;;37.77;21.77;;;0.30;99.90;;;1.20;80.40;99114.28;5218192;28;20326;-61
2022/01/27 10:05:01;;;;;;;36.53;20.97;;;0.30;99.90;;;1.26;80.51;99097.38;5221861;28;20252;-63
2022/01/27 10:07:40;;;;;;;39.83;22.17;;;0.30;99.90;;;1.42;79.75;99086.50;5228193;28;20251;-62
2022/01/27 10:10:17;;;;;;;36.90;21.00;;;0.40;99.90;;;1.50;78.89;99095.81;5225003;28;20226;-63
2022/01/27 10:12:53;;;;;;;33.83;20.30;;;0.40;99.90;;;1.47;79.17;99088.78;5222216;28;20224;-63
2022/01/27 10:15:26;;;;;;;34.17;19.47;;;0.40;99.90;;;1.41;79.63;99079.66;5226844;28;20229;-61
2022/01/27 10:18:11;;;;;;;35.23;19.60;;;0.40;99.90;;;1.50;79.84;99079.06;5219811;28;20726;-60
2022/01/27 10:20:52;;;;;;;30.87;18.93;;;0.40;99.90;;;1.56;79.49;99077.22;5224774;28;20595;-63
2022/01/27 10:23:31;;;;;;;26.73;17.33;;;0.60;99.90;;;1.59;80.13;99066.59;5221709;28;20693;-63
2022/01/27 10:26:12;;;;;;;27.17;16.87;;;0.60;99.90;;;1.59;79.37;99074.16;5226363;28;20231;-63
2022/01/27 10:28:56;;;;;;;24.80;16.60;;;0.50;99.90;;;1.57;80.00;99079.03;5219188;28;20231;-63
2022/01/27 10:31:30;;;;;;;31.33;18.43;;;0.60;99.90;;;1.78;79.51;99065.38;5227897;28;20227;-62
2022/01/27 10:34:06;;;;;;;27.47;17.37;;;0.60;99.90;;;1.79;79.33;99061.22;5227692;28;20707;-64
2022/01/27 10:36:44;;;;;;;33.03;19.37;;;0.60;99.90;;;1.61;79.73;99050.03;5223181;28;20224;-63
2022/01/27 10:39:20;;;;;;;31.70;20.17;;;0.60;99.90;;;1.53;80.74;99060.88;5226168;28;20221;-62
2022/01/27 10:41:59;;;;;;;28.83;18.13;;;0.60;99.90;;;1.50;81.17;99060.53;5227115;28;20223;-63
2022/01/27 10:44:37;;;;;;;33.27;20.83;;;0.60;99.90;;;1.57;81.54;99057.94;5226060;28;20215;-63
2022/01/27 10:47:15;;;;;;;32.57;20.57;;;0.60;99.90;;;1.56;81.43;99063.72;5226548;28;20225;-63
2022/01/27 10:49:55;;;;;;;37.53;22.20;;;0.70;99.90;;;1.72;81.16;99056.25;5227410;28;20740;-61
2022/01/27 10:52:37;;;;;;;35.53;21.73;;;0.70;99.90;;;1.71;81.67;99047.78;5222725;28;20591;-63
2022/01/27 10:55:13;;;;;;;32.77;20.90;;;0.70;99.90;;;1.68;82.00;99044.91;5226943;28;20222;-63
2022/01/27 10:57:50;;;;;;;38.70;24.40;;;0.80;99.90;;;1.78;81.47;99040.19;5221178;28;20597;-62
2022/01/27 11:00:24;;;;;;;33.17;22.60;;;0.80;99.90;;;1.74;81.85;99038.03;5228327;28;20685;-60
2022/01/27 11:03:01;;;;;;;34.20;21.67;;;0.80;99.90;;;1.95;81.68;99034.47;5226135;28;20228;-63
2022/01/27 11:05:42;;;;;;;29.97;19.70;;;0.90;99.90;;;1.99;81.68;99025.59;5221887;28;20608;-63
2022/01/27 11:08:20;;;;;;;30.53;20.10;;;1.00;99.90;;;2.05;81.87;99021.22;5217061;28;20228;-62